Time;durP1;ratioP1;P1;durP2;ratioP2;P2;SDS_P1;SDS_P2;PMS_P1;PMS_P2;Temp;Humidity;BMP_temperature;BMP_pressure;BME280_temperature;BME280_humidity;BME280_pressure;Samples;Min_cycle;Max_cycle;Signal;HPM_P1;HPM_P2
2023/06/17 00:00:25;;;;;;;14.90;7.65;;;16.10;78.90;;;;;;5033905;28;20413;-78
2023/06/17 00:02:51;;;;;;;12.23;7.97;;;16.00;79.10;;;;;;5026388;28;20052;-77
2023/06/17 00:05:17;;;;;;;11.88;7.72;;;15.90;79.50;;;;;;5056530;28;20103;-78
2023/06/17 00:07:43;;;;;;;11.82;8.40;;;16.20;80.00;;;;;;5043088;28;20068;-77
2023/06/17 00:10:10;;;;;;;12.55;8.32;;;15.80;80.10;;;;;;5035913;28;20049;-77
2023/06/17 00:12:36;;;;;;;12.65;8.10;;;15.80;80.50;;;;;;5036702;28;20045;-77
2023/06/17 00:15:04;;;;;;;12.90;8.82;;;15.80;80.80;;;;;;5042071;28;20408;-77
2023/06/17 00:17:33;;;;;;;13.15;9.05;;;15.70;81.20;;;;;;5059416;28;20523;-78
2023/06/17 00:20:11;;;;;;;10.65;8.80;;;15.70;81.90;;;;;;5028956;28;20071;-78
2023/06/17 00:22:39;;;;;;;14.07;8.75;;;15.60;82.30;;;;;;5052100;28;20407;-77
2023/06/17 00:25:08;;;;;;;13.45;8.60;;;15.60;82.50;;;;;;5036051;28;20048;-77
2023/06/17 00:27:33;;;;;;;9.90;8.32;;;15.60;83.00;;;;;;5048666;28;20432;-77
2023/06/17 00:29:59;;;;;;;12.27;9.07;;;15.50;83.30;;;;;;5019799;28;20163;-77
2023/06/17 00:32:30;;;;;;;13.00;8.55;;;15.60;83.70;;;;;;5020471;28;20079;-77
2023/06/17 00:34:56;;;;;;;11.85;8.82;;;15.50;84.20;;;;;;5049273;28;20094;-78
2023/06/17 00:37:22;;;;;;;11.82;9.00;;;15.50;84.50;;;;;;5056944;28;20037;-78
2023/06/17 00:39:48;;;;;;;13.10;9.30;;;15.50;85.00;;;;;;5038137;28;20517;-77
2023/06/17 00:42:13;;;;;;;13.80;8.82;;;15.60;85.50;;;;;;5059290;28;20129;-77
2023/06/17 00:44:40;;;;;;;14.00;8.65;;;15.40;85.80;;;;;;5039745;28;20377;-78
2023/06/17 00:47:06;;;;;;;14.88;9.25;;;15.40;86.10;;;;;;5032579;28;20042;-79
2023/06/17 00:49:36;;;;;;;15.18;9.57;;;15.40;86.50;;;;;;5036132;28;20041;-77
2023/06/17 00:52:07;;;;;;;13.43;9.80;;;15.40;86.80;;;;;;5021699;28;20087;-78
2023/06/17 00:54:36;;;;;;;13.07;9.93;;;15.40;87.40;;;;;;5030311;28;20408;-78
2023/06/17 00:57:02;;;;;;;12.65;9.35;;;15.30;87.90;;;;;;5037692;28;20052;-78
2023/06/17 00:59:32;;;;;;;13.50;9.75;;;15.20;88.20;;;;;;5041827;28;20036;-78
2023/06/17 01:01:58;;;;;;;17.25;9.90;;;15.20;88.90;;;;;;5052271;28;20052;-78
2023/06/17 01:04:24;;;;;;;13.13;10.40;;;15.20;89.20;;;;;;5018689;28;20033;-77
2023/06/17 01:07:09;;;;;;;12.93;9.98;;;15.30;89.90;;;;;;5043579;28;20504;-78
2023/06/17 01:09:38;;;;;;;14.00;9.63;;;15.20;90.20;;;;;;5036483;28;20056;-78
2023/06/17 01:12:07;;;;;;;12.93;10.95;;;15.20;90.40;;;;;;5026485;28;20075;-78
2023/06/17 01:14:33;;;;;;;17.02;10.98;;;15.20;90.60;;;;;;5019685;28;20139;-78
2023/06/17 01:17:01;;;;;;;18.15;10.55;;;15.20;90.90;;;;;;5042107;28;20067;-78
2023/06/17 01:19:27;;;;;;;17.38;10.88;;;15.00;91.20;;;;;;5038967;28;20044;-77
2023/06/17 01:21:53;;;;;;;18.05;11.45;;;15.10;91.50;;;;;;5035646;28;20381;-78
2023/06/17 01:24:30;;;;;;;18.60;11.40;;;15.10;91.80;;;;;;5034799;28;20033;-77
2023/06/17 01:26:59;;;;;;;20.73;12.10;;;15.10;92.10;;;;;;5034075;28;20483;-80
2023/06/17 01:29:29;;;;;;;17.88;12.43;;;15.00;92.20;;;;;;5034760;28;20041;-78
2023/06/17 01:31:59;;;;;;;16.90;12.23;;;15.00;92.40;;;;;;5035801;28;20056;-78
2023/06/17 01:34:55;;;;;;;23.42;12.10;;;15.00;92.70;;;;;;5034886;28;20703;-77
2023/06/17 01:37:31;;;;;;;16.10;12.32;;;15.00;93.00;;;;;;5035155;28;20043;-77
2023/06/17 01:40:00;;;;;;;16.30;12.70;;;14.90;93.10;;;;;;5030857;28;20052;-77
2023/06/17 01:42:34;;;;;;;19.00;12.68;;;14.80;93.30;;;;;;5033880;28;20049;-78
2023/06/17 01:45:03;;;;;;;14.65;11.88;;;15.20;93.70;;;;;;5033739;28;20045;-77
2023/06/17 01:47:30;;;;;;;15.95;10.88;;;14.80;93.70;;;;;;5017374;28;20036;-77
2023/06/17 01:49:58;;;;;;;12.20;10.35;;;14.70;93.80;;;;;;5033721;28;20720;-77
2023/06/17 01:52:24;;;;;;;16.40;11.88;;;14.80;93.90;;;;;;5029541;28;20036;-78
2023/06/17 01:54:50;;;;;;;16.52;11.60;;;14.70;93.90;;;;;;5033774;28;20041;-78
2023/06/17 01:57:15;;;;;;;14.02;11.95;;;14.80;94.00;;;;;;5051882;28;20360;-77
2023/06/17 01:59:42;;;;;;;16.77;13.23;;;14.60;94.00;;;;;;5034898;28;20040;-77
2023/06/17 02:02:08;;;;;;;17.83;13.30;;;14.60;94.20;;;;;;5033978;28;20064;-77
2023/06/17 02:04:34;;;;;;;15.18;13.18;;;15.00;94.60;;;;;;5035069;28;20091;-77
2023/06/17 02:07:02;;;;;;;16.48;13.45;;;14.70;94.70;;;;;;5044820;28;20055;-77
2023/06/17 02:09:28;;;;;;;18.23;13.98;;;14.60;94.80;;;;;;5047477;28;20037;-77
2023/06/17 02:11:54;;;;;;;17.08;13.50;;;14.50;94.80;;;;;;5031326;28;20563;-77
2023/06/17 02:14:19;;;;;;;18.38;14.35;;;14.50;94.80;;;;;;5032884;28;20037;-77
2023/06/17 02:16:49;;;;;;;20.73;16.23;;;14.50;95.00;;;;;;5051797;28;20119;-77
2023/06/17 02:19:15;;;;;;;22.73;16.60;;;14.70;95.30;;;;;;5033469;28;20041;-77
2023/06/17 02:21:42;;;;;;;23.98;17.10;;;14.50;95.50;;;;;;5043434;28;20037;-77
2023/06/17 02:24:07;;;;;;;19.42;17.33;;;14.50;95.70;;;;;;5035523;28;20029;-77
2023/06/17 02:26:33;;;;;;;20.13;16.10;;;14.50;96.00;;;;;;5046959;28;20553;-77
2023/06/17 02:28:59;;;;;;;20.60;16.75;;;14.50;96.20;;;;;;5030605;28;20045;-77
2023/06/17 02:31:27;;;;;;;20.90;17.48;;;14.60;96.40;;;;;;5038221;28;20045;-77
2023/06/17 02:33:53;;;;;;;21.90;17.23;;;14.60;96.60;;;;;;5034595;28;20504;-77
2023/06/17 02:36:19;;;;;;;23.55;16.98;;;14.60;96.80;;;;;;5034127;28;20068;-77
2023/06/17 02:38:44;;;;;;;22.92;16.63;;;14.80;97.10;;;;;;5031522;28;20047;-78
2023/06/17 02:41:10;;;;;;;19.20;15.57;;;14.60;97.20;;;;;;5034117;28;20032;-77
2023/06/17 02:43:36;;;;;;;18.30;14.05;;;14.70;97.50;;;;;;5033926;28;20037;-77
2023/06/17 02:46:01;;;;;;;17.48;13.90;;;14.50;97.60;;;;;;5024474;28;20037;-78
2023/06/17 02:48:27;;;;;;;15.88;14.18;;;14.40;97.50;;;;;;5017275;28;20036;-78
2023/06/17 02:50:54;;;;;;;19.92;13.73;;;14.30;97.40;;;;;;5050514;28;20044;-78
2023/06/17 02:53:20;;;;;;;18.63;14.52;;;14.20;97.30;;;;;;5033046;28;20052;-78
2023/06/17 02:55:46;;;;;;;20.40;15.82;;;13.70;97.20;;;;;;5047080;28;20056;-77
2023/06/17 02:58:15;;;;;;;18.38;15.90;;;14.20;97.50;;;;;;5051242;28;20485;-77
2023/06/17 03:00:45;;;;;;;18.63;16.13;;;14.20;97.60;;;;;;5034238;28;20045;-77
2023/06/17 03:03:10;;;;;;;34.45;17.48;;;14.20;97.80;;;;;;5028953;28;20511;-77
2023/06/17 03:05:37;;;;;;;19.90;17.20;;;14.50;98.00;;;;;;5033237;28;20037;-77
2023/06/17 03:08:06;;;;;;;22.52;18.20;;;14.50;98.20;;;;;;5027948;28;20063;-77
2023/06/17 03:10:33;;;;;;;21.23;17.08;;;14.30;98.30;;;;;;5033577;28;20045;-77
2023/06/17 03:12:59;;;;;;;20.67;17.75;;;14.30;98.40;;;;;;5033818;28;20481;-78
2023/06/17 03:15:26;;;;;;;20.73;17.60;;;14.30;98.50;;;;;;5032942;28;20431;-77
2023/06/17 03:17:52;;;;;;;23.02;18.23;;;14.70;98.80;;;;;;5032576;28;20041;-77
2023/06/17 03:20:18;;;;;;;25.33;18.10;;;14.70;99.00;;;;;;5033201;28;20048;-77
2023/06/17 03:22:44;;;;;;;22.95;18.25;;;14.60;99.10;;;;;;5017088;28;20041;-77
2023/06/17 03:25:11;;;;;;;22.70;18.48;;;14.80;99.40;;;;;;5026661;28;20491;-77
2023/06/17 03:27:37;;;;;;;23.15;19.50;;;14.60;99.50;;;;;;5051588;28;20049;-77
2023/06/17 03:30:03;;;;;;;25.88;19.13;;;14.60;99.80;;;;;;5033907;28;20445;-77
2023/06/17 03:32:28;;;;;;;21.13;18.13;;;14.70;99.90;;;;;;5032258;28;20056;-78
2023/06/17 03:34:54;;;;;;;20.02;17.92;;;14.60;99.90;;;;;;5048977;28;20045;-78
2023/06/17 03:37:22;;;;;;;21.88;18.55;;;14.90;99.90;;;;;;5033644;28;20108;-77
2023/06/17 03:39:48;;;;;;;24.30;18.02;;;14.90;99.90;;;;;;5033915;28;20051;-77
2023/06/17 03:42:17;;;;;;;25.45;19.55;;;15.20;99.90;;;;;;5055080;28;20033;-77
2023/06/17 03:44:42;;;;;;;23.02;17.85;;;15.00;99.90;;;;;;5033401;28;20558;-77
2023/06/17 03:47:08;;;;;;;22.35;19.00;;;15.10;99.90;;;;;;5054962;28;20037;-77
2023/06/17 03:49:34;;;;;;;26.25;19.42;;;15.10;99.90;;;;;;5032859;28;20048;-77
2023/06/17 03:52:00;;;;;;;24.35;18.80;;;15.20;99.90;;;;;;5035902;28;20099;-77
2023/06/17 03:54:25;;;;;;;22.52;18.85;;;15.20;99.90;;;;;;5036578;28;20041;-77
2023/06/17 03:56:51;;;;;;;26.92;20.27;;;15.30;99.90;;;;;;5034214;28;20451;-77
2023/06/17 03:59:17;;;;;;;25.50;20.02;;;15.70;99.90;;;;;;5033162;28;20152;-77
2023/06/17 04:01:43;;;;;;;21.80;18.50;;;15.90;99.90;;;;;;5036424;28;20067;-77
2023/06/17 04:04:09;;;;;;;22.13;19.48;;;15.40;99.90;;;;;;5019980;28;20032;-77
2023/06/17 04:06:35;;;;;;;20.88;18.45;;;15.40;99.90;;;;;;5035844;28;20037;-77
2023/06/17 04:09:02;;;;;;;22.50;19.25;;;15.40;99.90;;;;;;5036264;28;20087;-77
2023/06/17 04:11:31;;;;;;;22.05;19.42;;;15.40;99.90;;;;;;5031478;28;20072;-77
2023/06/17 04:13:56;;;;;;;24.85;19.65;;;15.80;99.90;;;;;;5017445;28;20429;-77
2023/06/17 04:16:23;;;;;;;24.40;18.75;;;16.00;99.90;;;;;;5036330;28;20036;-77
2023/06/17 04:18:48;;;;;;;30.42;20.23;;;15.50;99.90;;;;;;5036172;28;20102;-77
2023/06/17 04:21:14;;;;;;;31.35;20.92;;;15.50;99.90;;;;;;5034785;28;20029;-77
2023/06/17 04:23:40;;;;;;;33.72;20.35;;;15.60;99.90;;;;;;5036482;28;20041;-77
2023/06/17 04:26:06;;;;;;;26.35;20.42;;;15.60;99.90;;;;;;5017944;28;20037;-77
2023/06/17 04:28:32;;;;;;;28.75;21.45;;;15.60;99.90;;;;;;5054525;28;20049;-77
2023/06/17 04:31:00;;;;;;;29.85;21.95;;;15.70;99.90;;;;;;5035604;28;20049;-77
2023/06/17 04:33:27;;;;;;;34.85;20.40;;;15.70;99.90;;;;;;5035991;28;20118;-77
2023/06/17 04:35:53;;;;;;;29.55;21.23;;;16.60;99.90;;;;;;5035539;28;20404;-78
2023/06/17 04:38:21;;;;;;;28.40;20.95;;;15.90;99.90;;;;;;5031090;28;20056;-77
2023/06/17 04:40:46;;;;;;;28.58;21.88;;;15.80;99.90;;;;;;5018896;28;20041;-77
2023/06/17 04:43:12;;;;;;;29.90;20.33;;;15.90;99.90;;;;;;5029297;28;20033;-77
2023/06/17 04:45:39;;;;;;;27.77;19.80;;;15.90;99.90;;;;;;5047488;28;20040;-77
2023/06/17 04:48:05;;;;;;;27.88;19.73;;;15.90;99.90;;;;;;5029436;28;20045;-77
2023/06/17 04:50:32;;;;;;;25.52;18.92;;;16.10;99.90;;;;;;5045734;28;20485;-77
2023/06/17 04:53:03;;;;;;;24.30;18.00;;;16.10;99.90;;;;;;5017332;28;20044;-77
2023/06/17 04:55:30;;;;;;;24.43;18.30;;;16.00;99.90;;;;;;5034292;28;20036;-77
2023/06/17 04:57:56;;;;;;;30.88;18.63;;;16.40;99.90;;;;;;5035274;28;20041;-78
2023/06/17 05:00:21;;;;;;;24.67;17.17;;;16.10;99.90;;;;;;5018954;28;20056;-77
2023/06/17 05:02:47;;;;;;;26.80;16.85;;;16.20;99.90;;;;;;5012712;28;20398;-77
2023/06/17 05:05:12;;;;;;;29.13;17.88;;;16.30;99.90;;;;;;5035071;28;20095;-77
2023/06/17 05:07:38;;;;;;;26.83;17.27;;;16.30;99.90;;;;;;5034943;28;20037;-77
2023/06/17 05:10:04;;;;;;;28.17;16.65;;;16.40;99.90;;;;;;5034820;28;20049;-77
2023/06/17 05:12:30;;;;;;;24.25;16.70;;;16.40;99.90;;;;;;5034878;28;20052;-77
2023/06/17 05:14:55;;;;;;;27.40;16.13;;;16.40;99.90;;;;;;5034515;28;20045;-77
2023/06/17 05:17:21;;;;;;;30.35;16.95;;;16.60;99.90;;;;;;5032523;28;20045;-77
2023/06/17 05:19:47;;;;;;;27.80;16.58;;;16.50;99.90;;;;;;5033753;28;20041;-77
2023/06/17 05:22:12;;;;;;;24.90;16.05;;;16.60;99.90;;;;;;5018901;28;20037;-77
2023/06/17 05:24:38;;;;;;;21.83;15.38;;;16.80;99.90;;;;;;5029765;28;20476;-77
2023/06/17 05:27:04;;;;;;;23.70;15.35;;;17.10;99.90;;;;;;5035310;28;20110;-77
2023/06/17 05:29:29;;;;;;;25.88;15.50;;;16.70;99.90;;;;;;5027209;28;20044;-77
2023/06/17 05:31:55;;;;;;;23.45;15.18;;;16.80;99.90;;;;;;5034016;28;20048;-77
2023/06/17 05:34:21;;;;;;;20.25;14.30;;;16.80;99.90;;;;;;5030091;28;20044;-77
2023/06/17 05:36:46;;;;;;;23.98;15.23;;;16.80;99.90;;;;;;5034947;28;20059;-77
2023/06/17 05:39:12;;;;;;;23.80;15.48;;;16.90;99.90;;;;;;5011277;28;20076;-77
2023/06/17 05:41:37;;;;;;;22.33;15.93;;;16.90;99.90;;;;;;5034521;28;20033;-77
2023/06/17 05:44:03;;;;;;;25.38;16.23;;;16.90;99.90;;;;;;5052224;28;20068;-77
2023/06/17 05:46:29;;;;;;;27.17;16.70;;;17.70;99.90;;;;;;5017952;28;20040;-77
2023/06/17 05:48:54;;;;;;;24.10;16.25;;;16.90;99.90;;;;;;5043860;28;20090;-77
2023/06/17 05:51:20;;;;;;;24.63;16.45;;;17.00;99.90;;;;;;5020478;28;20036;-77
2023/06/17 05:53:45;;;;;;;30.30;17.27;;;17.40;99.90;;;;;;5052896;28;20435;-77
2023/06/17 05:56:11;;;;;;;24.80;16.77;;;17.00;99.90;;;;;;5018388;28;20036;-77
2023/06/17 05:58:37;;;;;;;26.52;17.27;;;17.00;99.90;;;;;;5047483;28;20073;-76
2023/06/17 06:01:02;;;;;;;24.85;16.75;;;17.30;99.90;;;;;;5033712;28;20488;-77
2023/06/17 06:03:28;;;;;;;31.08;17.50;;;17.10;99.90;;;;;;5038891;28;20028;-77
2023/06/17 06:05:54;;;;;;;27.02;17.67;;;17.20;99.90;;;;;;5038492;28;20037;-77
2023/06/17 06:08:19;;;;;;;26.23;16.80;;;17.20;99.90;;;;;;5037347;28;20032;-77
2023/06/17 06:10:45;;;;;;;25.88;17.00;;;17.40;99.90;;;;;;5022235;28;20097;-77
2023/06/17 06:13:11;;;;;;;26.95;16.73;;;17.40;99.90;;;;;;5033464;28;20037;-77
2023/06/17 06:15:36;;;;;;;26.05;17.10;;;17.70;99.90;;;;;;5038277;28;20439;-77
2023/06/17 06:18:02;;;;;;;26.85;16.95;;;17.50;99.90;;;;;;5032247;28;20137;-77
2023/06/17 06:20:28;;;;;;;21.48;15.35;;;17.50;99.90;;;;;;5035841;28;20503;-77
2023/06/17 06:22:54;;;;;;;24.27;15.30;;;17.70;99.90;;;;;;5038426;28;20059;-77
2023/06/17 06:25:20;;;;;;;24.50;15.90;;;17.90;99.90;;;;;;5033947;28;20036;-77
2023/06/17 06:27:48;;;;;;;24.45;16.23;;;17.60;99.90;;;;;;5020556;28;20048;-77
2023/06/17 06:30:13;;;;;;;22.63;14.48;;;17.70;99.90;;;;;;5050922;28;20045;-77
2023/06/17 06:32:39;;;;;;;19.33;15.00;;;17.70;99.90;;;;;;5032607;28;20056;-77
2023/06/17 06:35:05;;;;;;;22.60;14.25;;;18.40;99.90;;;;;;5033778;28;20123;-77
2023/06/17 06:37:31;;;;;;;21.90;14.95;;;17.90;99.90;;;;;;5031459;28;20091;-77
2023/06/17 06:39:56;;;;;;;20.88;15.90;;;18.00;99.90;;;;;;5033800;28;20496;-78
2023/06/17 06:42:22;;;;;;;22.58;16.10;;;18.00;99.90;;;;;;5033824;28;20045;-77
2023/06/17 06:44:48;;;;;;;24.98;16.05;;;17.90;99.90;;;;;;5029919;28;20041;-77
2023/06/17 06:47:14;;;;;;;21.58;15.65;;;18.60;99.90;;;;;;5016417;28;20390;-78
2023/06/17 06:49:40;;;;;;;24.13;15.80;;;18.20;99.90;;;;;;5013077;28;20047;-77
2023/06/17 06:52:06;;;;;;;20.85;15.98;;;18.20;99.90;;;;;;5032837;28;20041;-77
2023/06/17 06:54:31;;;;;;;19.95;15.23;;;18.20;99.90;;;;;;5032951;28;20127;-77
2023/06/17 06:56:57;;;;;;;20.20;15.95;;;18.20;99.90;;;;;;5033612;28;20045;-77
2023/06/17 06:59:23;;;;;;;20.02;15.80;;;18.00;99.90;;;;;;5014919;28;20121;-78
2023/06/17 07:01:48;;;;;;;25.17;17.00;;;18.20;99.90;;;;;;5031451;28;20043;-77
2023/06/17 07:04:14;;;;;;;22.50;16.33;;;18.20;99.90;;;;;;5032990;28;20377;-78
2023/06/17 07:06:40;;;;;;;19.58;16.00;;;18.20;99.90;;;;;;5015863;28;20099;-78
2023/06/17 07:09:06;;;;;;;25.52;16.55;;;18.20;99.90;;;;;;5032086;28;20041;-78
2023/06/17 07:11:32;;;;;;;20.08;15.75;;;18.20;99.90;;;;;;5033204;28;20464;-78
2023/06/17 07:13:57;;;;;;;23.17;16.67;;;18.50;99.90;;;;;;5031616;28;20075;-80
2023/06/17 07:16:23;;;;;;;20.02;15.38;;;18.50;99.90;;;;;;5013121;28;20037;-79
2023/06/17 07:18:48;;;;;;;20.02;16.35;;;18.50;99.90;;;;;;5016014;28;20084;-78
2023/06/17 07:21:14;;;;;;;22.80;17.58;;;18.10;99.90;;;;;;5016262;28;20037;-78
2023/06/17 07:23:40;;;;;;;18.30;16.15;;;18.10;99.90;;;;;;5043879;28;20068;-78
2023/06/17 07:26:06;;;;;;;24.30;16.80;;;18.50;99.90;;;;;;5046663;28;20029;-77
2023/06/17 07:28:32;;;;;;;21.70;16.10;;;18.20;99.90;;;;;;5028550;28;20055;-78
2023/06/17 07:30:58;;;;;;;20.73;15.38;;;18.30;99.90;;;;;;5046620;28;20041;-78
2023/06/17 07:33:25;;;;;;;21.27;15.98;;;18.30;99.90;;;;;;5030427;28;20412;-78
2023/06/17 07:35:50;;;;;;;21.35;15.35;;;18.30;99.90;;;;;;5012820;28;20120;-78
2023/06/17 07:38:16;;;;;;;21.45;17.23;;;18.40;99.90;;;;;;5012044;28;20569;-78
2023/06/17 07:40:42;;;;;;;21.25;15.85;;;18.30;99.90;;;;;;5018501;28;20582;-78
2023/06/17 07:43:08;;;;;;;20.27;15.57;;;18.30;99.90;;;;;;5038572;28;20037;-78
2023/06/17 07:45:34;;;;;;;20.85;15.07;;;19.10;99.90;;;;;;5009861;28;20040;-78
2023/06/17 07:48:00;;;;;;;21.75;16.05;;;18.40;99.90;;;;;;5036307;28;20040;-78
2023/06/17 07:50:26;;;;;;;21.08;14.93;;;18.40;99.90;;;;;;5018593;28;20045;-77
2023/06/17 07:52:52;;;;;;;19.70;15.05;;;18.40;99.90;;;;;;5034112;28;20765;-78
2023/06/17 07:55:18;;;;;;;17.30;14.00;;;18.70;99.90;;;;;;5019656;28;20041;-77
2023/06/17 07:57:44;;;;;;;19.80;15.70;;;18.50;99.90;;;;;;5020754;28;20504;-78
2023/06/17 08:00:13;;;;;;;18.65;14.68;;;18.50;99.90;;;;;;5020104;28;20041;-78
2023/06/17 08:02:40;;;;;;;23.08;14.82;;;18.60;99.90;;;;;;5020744;28;20057;-77
2023/06/17 08:05:06;;;;;;;18.77;15.43;;;18.60;99.90;;;;;;5020948;28;20400;-78
2023/06/17 08:07:32;;;;;;;20.63;15.85;;;18.60;99.90;;;;;;5024094;28;20110;-80
2023/06/17 08:09:57;;;;;;;21.48;16.48;;;18.70;99.90;;;;;;5018007;28;20072;-77
2023/06/17 08:12:23;;;;;;;24.13;15.30;;;18.80;99.90;;;;;;5039464;28;20037;-78
2023/06/17 08:14:49;;;;;;;17.73;13.30;;;18.80;99.90;;;;;;5014981;28;20034;-77
2023/06/17 08:17:14;;;;;;;18.33;14.43;;;19.20;99.90;;;;;;5016937;28;20045;-77
2023/06/17 08:19:43;;;;;;;18.33;14.70;;;19.10;99.90;;;;;;5021908;28;20041;-77
2023/06/17 08:22:10;;;;;;;17.75;13.75;;;19.60;99.90;;;;;;5037846;28;20079;-78
2023/06/17 08:24:36;;;;;;;17.95;13.55;;;19.50;99.90;;;;;;5034803;28;20438;-77
2023/06/17 08:27:01;;;;;;;17.30;13.00;;;20.00;99.90;;;;;;5028401;28;20044;-78
2023/06/17 08:29:27;;;;;;;16.83;13.32;;;20.00;99.90;;;;;;5041058;28;20075;-79
2023/06/17 08:31:53;;;;;;;17.38;13.38;;;20.30;99.90;;;;;;5047458;28;20067;-78
2023/06/17 08:34:19;;;;;;;17.95;12.82;;;20.50;99.90;;;;;;5038399;28;20086;-78
2023/06/17 08:36:48;;;;;;;16.80;13.20;;;20.70;99.90;;;;;;5020254;28;20041;-78
2023/06/17 08:39:14;;;;;;;14.98;11.75;;;20.80;99.90;;;;;;5020626;28;20452;-78
2023/06/17 08:41:42;;;;;;;18.42;12.05;;;21.00;99.90;;;;;;5043333;28;20072;-79
2023/06/17 08:44:11;;;;;;;16.48;11.00;;;21.20;99.90;;;;;;5025035;28;20040;-79
2023/06/17 08:46:37;;;;;;;18.02;11.82;;;21.70;99.90;;;;;;5042240;28;20037;-78
2023/06/17 08:49:03;;;;;;;14.38;11.48;;;21.80;99.90;;;;;;5043256;28;20127;-78
2023/06/17 08:51:30;;;;;;;14.43;10.73;;;22.00;99.90;;;;;;5033082;28;20121;-78
2023/06/17 08:53:56;;;;;;;19.35;12.23;;;22.20;99.80;;;;;;5052549;28;20040;-78
2023/06/17 08:56:23;;;;;;;14.57;10.77;;;22.40;99.20;;;;;;5037481;23;20052;-78
2023/06/17 08:58:54;;;;;;;13.00;10.40;;;22.60;98.70;;;;;;5030173;28;20060;-78
2023/06/17 09:01:20;;;;;;;14.10;9.65;;;22.80;98.40;;;;;;5048149;28;20106;-78
2023/06/17 09:03:50;;;;;;;13.52;9.88;;;23.00;98.00;;;;;;5051046;28;20078;-78
2023/06/17 09:06:23;;;;;;;16.52;11.25;;;23.20;97.60;;;;;;5009192;28;20087;-78
2023/06/17 09:08:53;;;;;;;16.23;12.70;;;23.50;97.30;;;;;;5017405;28;20083;-79
2023/06/17 09:11:29;;;;;;;17.98;12.07;;;23.60;96.70;;;;;;5010400;28;20042;-78
2023/06/17 09:14:00;;;;;;;14.55;11.20;;;23.50;95.90;;;;;;5015964;28;20464;-78
2023/06/17 09:16:34;;;;;;;13.10;10.70;;;23.50;95.80;;;;;;5015109;28;20037;-78
2023/06/17 09:19:08;;;;;;;15.32;10.82;;;23.50;96.10;;;;;;5015917;28;20452;-78
2023/06/17 09:21:35;;;;;;;13.68;10.43;;;23.60;95.80;;;;;;5024488;28;20044;-78
2023/06/17 09:24:03;;;;;;;10.88;9.75;;;23.60;95.70;;;;;;5011336;28;20036;-78
2023/06/17 09:26:30;;;;;;;13.15;9.32;;;23.60;95.40;;;;;;5033135;28;20153;-77
2023/06/17 09:29:03;;;;;;;13.85;9.10;;;23.90;95.40;;;;;;5014242;28;20048;-77
2023/06/17 09:31:30;;;;;;;11.23;8.30;;;24.20;95.00;;;;;;5014190;28;20155;-77
2023/06/17 09:33:56;;;;;;;11.45;7.65;;;24.50;94.50;;;;;;5009654;28;20061;-78
2023/06/17 09:36:25;;;;;;;11.18;8.85;;;24.70;93.90;;;;;;5008351;28;20159;-78
2023/06/17 09:38:51;;;;;;;15.15;9.30;;;25.00;93.30;;;;;;5009080;28;20041;-78
2023/06/17 09:41:20;;;;;;;12.10;9.60;;;25.20;93.10;;;;;;5010326;28;20516;-77
2023/06/17 09:43:52;;;;;;;13.35;10.02;;;25.20;92.60;;;;;;5014041;28;20495;-78
2023/06/17 09:46:29;;;;;;;10.65;8.15;;;25.20;91.70;;;;;;4995724;28;20073;-77
2023/06/17 09:48:55;;;;;;;11.15;8.45;;;25.10;91.40;;;;;;5021456;28;20674;-78
2023/06/17 09:51:23;;;;;;;11.48;7.97;;;25.20;91.80;;;;;;5015568;28;20041;-77
2023/06/17 09:53:50;;;;;;;13.23;7.95;;;25.30;91.30;;;;;;5013893;28;20401;-77
2023/06/17 09:56:17;;;;;;;11.65;7.20;;;25.60;91.10;;;;;;5014645;28;20064;-78
2023/06/17 09:58:44;;;;;;;10.23;7.63;;;25.90;90.80;;;;;;5015006;28;20041;-78
2023/06/17 10:01:11;;;;;;;10.55;7.60;;;26.10;90.20;;;;;;5008567;28;20049;-77
2023/06/17 10:03:39;;;;;;;9.32;7.47;;;26.30;89.90;;;;;;5010171;28;20486;-77
2023/06/17 10:06:07;;;;;;;12.35;8.25;;;26.40;89.00;;;;;;5012570;28;20516;-77
2023/06/17 10:08:36;;;;;;;11.90;8.60;;;26.60;88.80;;;;;;5009132;28;20500;-76
2023/06/17 10:11:02;;;;;;;9.48;8.30;;;26.80;87.80;;;;;;5014743;28;20057;-77
2023/06/17 10:13:33;;;;;;;12.05;8.32;;;26.70;87.70;;;;;;5017063;28;20523;-78
2023/06/17 10:16:00;;;;;;;11.02;8.32;;;26.70;87.50;;;;;;5012135;28;20045;-79
2023/06/17 10:18:28;;;;;;;11.52;7.80;;;26.70;86.90;;;;;;5004707;28;20037;-77
2023/06/17 10:20:55;;;;;;;9.57;7.97;;;26.70;86.50;;;;;;5009414;28;20563;-78
2023/06/17 10:23:23;;;;;;;11.38;7.78;;;26.90;85.80;;;;;;5012828;28;20497;-77
2023/06/17 10:25:49;;;;;;;9.38;7.57;;;26.90;84.30;;;;;;5013956;28;20080;-74
2023/06/17 10:28:15;;;;;;;12.52;7.65;;;27.20;83.50;;;;;;5031128;28;20065;-76
2023/06/17 10:30:44;;;;;;;9.88;7.70;;;27.30;82.40;;;;;;5003807;28;20042;-77
2023/06/17 10:33:11;;;;;;;11.35;8.00;;;27.40;81.70;;;;;;5027232;28;20037;-77
2023/06/17 10:35:39;;;;;;;12.50;9.20;;;27.40;81.70;;;;;;5012020;28;20042;-77
2023/06/17 10:38:06;;;;;;;11.80;8.27;;;27.40;81.50;;;;;;5012593;28;20497;-77
2023/06/17 10:40:35;;;;;;;9.32;8.10;;;27.40;81.60;;;;;;5013517;28;20413;-77
2023/06/17 10:43:01;;;;;;;9.93;7.95;;;27.30;81.40;;;;;;5012088;28;20045;-77
2023/06/17 10:45:54;;;;;;;13.00;8.00;;;27.40;81.20;;;;;;5012482;28;20420;-77
2023/06/17 10:48:32;;;;;;;10.50;8.05;;;27.40;80.30;;;;;;5011322;28;20391;-77
2023/06/17 10:51:02;;;;;;;13.30;8.95;;;27.60;79.60;;;;;;5011904;28;20045;-77
2023/06/17 10:53:35;;;;;;;11.20;8.47;;;27.50;78.70;;;;;;5029785;28;20370;-78
2023/06/17 10:56:03;;;;;;;9.15;7.47;;;27.40;79.60;;;;;;5010825;28;20041;-76
2023/06/17 10:58:34;;;;;;;10.75;7.65;;;27.40;79.80;;;;;;5008489;28;20386;-78
2023/06/17 11:01:08;;;;;;;10.35;7.53;;;27.50;78.90;;;;;;5012183;28;20048;-77
2023/06/17 11:03:34;;;;;;;8.60;6.88;;;27.60;78.20;;;;;;5008825;28;20084;-77
2023/06/17 11:06:03;;;;;;;11.73;8.32;;;27.70;78.20;;;;;;5012888;28;20041;-78
2023/06/17 11:08:31;;;;;;;9.18;7.05;;;28.00;78.00;;;;;;5029697;28;20116;-77
2023/06/17 11:11:16;;;;;;;12.52;7.90;;;27.80;77.10;;;;;;5012857;28;20045;-77
2023/06/17 11:13:45;;;;;;;10.70;7.88;;;28.20;75.50;;;;;;5017572;28;20045;-77
2023/06/17 11:16:11;;;;;;;10.68;7.45;;;28.10;75.70;;;;;;5011264;28;20063;-78
2023/06/17 11:18:38;;;;;;;11.05;7.03;;;28.10;74.20;;;;;;5011196;28;20497;-77
2023/06/17 11:21:05;;;;;;;9.38;7.03;;;28.10;74.50;;;;;;5012267;28;20140;-77
2023/06/17 11:23:31;;;;;;;11.40;7.20;;;28.20;74.80;;;;;;5012915;28;20050;-77
2023/06/17 11:25:57;;;;;;;12.60;7.97;;;28.20;75.10;;;;;;5011593;28;20517;-78
2023/06/17 11:28:23;;;;;;;9.65;7.75;;;28.20;76.10;;;;;;5012522;28;20064;-77
2023/06/17 11:30:49;;;;;;;9.73;7.32;;;28.20;75.80;;;;;;5010847;28;20064;-78
2023/06/17 11:33:19;;;;;;;12.35;6.75;;;28.20;75.30;;;;;;5010859;28;20077;-77
2023/06/17 11:35:47;;;;;;;8.57;6.00;;;28.40;74.90;;;;;;5011736;28;20523;-78
2023/06/17 11:38:13;;;;;;;9.20;6.55;;;28.60;74.20;;;;;;5013092;28;20046;-77
2023/06/17 11:40:42;;;;;;;17.15;6.80;;;28.70;73.40;;;;;;5012104;28;20056;-78
2023/06/17 11:43:07;;;;;;;9.95;7.00;;;28.80;73.60;;;;;;5012808;28;20484;-77
2023/06/17 11:45:34;;;;;;;9.38;6.68;;;29.00;72.30;;;;;;5008997;28;21640;-77
2023/06/17 11:48:00;;;;;;;8.95;7.10;;;29.00;71.90;;;;;;5012295;28;20040;-77
2023/06/17 11:50:31;;;;;;;24.48;6.75;;;28.90;71.60;;;;;;5012951;28;20120;-75
2023/06/17 11:52:57;;;;;;;9.55;5.95;;;28.90;71.70;;;;;;5011766;28;20494;-75
2023/06/17 11:55:49;;;;;;;10.82;6.28;;;29.00;71.70;;;;;;5006942;28;20041;-74
2023/06/17 11:58:15;;;;;;;8.68;6.03;;;29.10;69.40;;;;;;5016070;28;20089;-74
2023/06/17 12:00:40;;;;;;;8.40;5.90;;;29.10;70.40;;;;;;5021071;28;20473;-75
2023/06/17 12:03:09;;;;;;;8.65;5.57;;;29.30;70.60;;;;;;5047858;28;20477;-74
2023/06/17 12:05:36;;;;;;;7.90;5.40;;;29.60;69.90;;;;;;5014415;28;20038;-75
2023/06/17 12:08:02;;;;;;;7.25;6.05;;;29.80;69.20;;;;;;5014768;28;20485;-74
2023/06/17 12:10:27;;;;;;;9.10;6.35;;;29.90;68.00;;;;;;5015399;28;20037;-74
2023/06/17 12:12:57;;;;;;;7.90;6.07;;;29.90;67.10;;;;;;5016907;28;20029;-74
2023/06/17 12:15:28;;;;;;;6.43;5.82;;;29.70;67.00;;;;;;5024124;28;20591;-78
2023/06/17 12:17:54;;;;;;;10.20;5.30;;;29.60;66.20;;;;;;5023401;28;20041;-76
2023/06/17 12:20:21;;;;;;;9.15;5.97;;;29.50;66.50;;;;;;5024202;28;20606;-74
2023/06/17 12:22:52;;;;;;;7.20;5.25;;;29.50;66.50;;;;;;5013317;28;20490;-74
2023/06/17 12:25:18;;;;;;;7.85;4.97;;;29.60;66.60;;;;;;5010544;28;20208;-74
2023/06/17 12:27:44;;;;;;;9.40;5.68;;;29.80;66.20;;;;;;5013838;28;20041;-74
2023/06/17 12:30:11;;;;;;;10.02;6.60;;;30.00;65.80;;;;;;5008430;28;20413;-75